Time;durP1;ratioP1;P1;durP2;ratioP2;P2;SDS_P1;SDS_P2;PMS_P1;PMS_P2;Temp;Humidity;BMP_temperature;BMP_pressure;BME280_temperature;BME280_humidity;BME280_pressure;Samples;Min_cycle;Max_cycle;Signal;HPM_P1;HPM_P2
2023/05/28 00:00:51;;;;;;;12.52;4.53;;;;;;;;;;5021827;28;20037;-59
2023/05/28 00:03:19;;;;;;;14.13;4.68;;;;;;;;;;5022162;28;20144;-58
2023/05/28 00:05:45;;;;;;;18.40;5.18;;;;;;;;;;5021111;28;21166;-59
2023/05/28 00:08:11;;;;;;;13.35;4.85;;;;;;;;;;5021059;28;20396;-58
2023/05/28 00:10:37;;;;;;;14.88;5.88;;;;;;;;;;5021468;28;20040;-59
2023/05/28 00:13:03;;;;;;;12.57;4.03;;;;;;;;;;5020805;28;20052;-58
2023/05/28 00:15:29;;;;;;;13.75;5.03;;;;;;;;;;5020663;28;20037;-59
2023/05/28 00:17:56;;;;;;;16.23;5.88;;;;;;;;;;5021644;28;20064;-59
2023/05/28 00:20:22;;;;;;;14.45;5.07;;;;;;;;;;5020635;28;20026;-59
2023/05/28 00:22:48;;;;;;;18.02;5.50;;;;;;;;;;5021198;28;20037;-59
2023/05/28 00:25:14;;;;;;;13.73;4.80;;;;;;;;;;5021258;28;20428;-58
2023/05/28 00:27:40;;;;;;;15.52;5.45;;;;;;;;;;5021645;28;20036;-58
2023/05/28 00:30:07;;;;;;;14.93;4.78;;;;;;;;;;5021195;28;20100;-59
2023/05/28 00:32:33;;;;;;;12.75;4.97;;;;;;;;;;5020716;28;20036;-58
2023/05/28 00:34:59;;;;;;;14.10;4.28;;;;;;;;;;5021210;28;20114;-59
2023/05/28 00:37:25;;;;;;;15.55;4.88;;;;;;;;;;5021754;28;20036;-59
2023/05/28 00:39:51;;;;;;;13.57;4.75;;;;;;;;;;5019861;28;20051;-59
2023/05/28 00:42:18;;;;;;;19.15;6.57;;;;;;;;;;5021416;28;20072;-58
2023/05/28 00:44:44;;;;;;;13.40;4.78;;;;;;;;;;5020492;28;20044;-59
2023/05/28 00:47:11;;;;;;;14.65;4.78;;;;;;;;;;5020856;28;20075;-58
2023/05/28 00:49:37;;;;;;;14.43;4.10;;;;;;;;;;5020443;28;20033;-59
2023/05/28 00:52:05;;;;;;;15.35;5.47;;;;;;;;;;5019435;28;20777;-58
2023/05/28 00:54:31;;;;;;;14.48;4.85;;;;;;;;;;5020421;28;20044;-59
2023/05/28 00:56:58;;;;;;;15.30;4.60;;;;;;;;;;5019182;28;20057;-59
2023/05/28 00:59:24;;;;;;;12.77;4.82;;;;;;;;;;5020904;28;20034;-59
2023/05/28 01:01:50;;;;;;;10.93;4.40;;;;;;;;;;5019740;28;20041;-58
2023/05/28 01:04:17;;;;;;;14.85;5.38;;;;;;;;;;5020402;28;21037;-59
2023/05/28 01:06:43;;;;;;;17.52;5.38;;;;;;;;;;5020938;28;20774;-59
2023/05/28 01:09:10;;;;;;;14.48;4.72;;;;;;;;;;5020156;28;20036;-59
2023/05/28 01:11:36;;;;;;;12.35;5.15;;;;;;;;;;5020864;28;20061;-58
2023/05/28 01:14:03;;;;;;;16.95;5.03;;;;;;;;;;5019941;28;20091;-58
2023/05/28 01:16:30;;;;;;;16.08;4.85;;;;;;;;;;5019052;28;20159;-59
2023/05/28 01:18:56;;;;;;;13.98;4.82;;;;;;;;;;5019816;28;20050;-59
2023/05/28 01:21:24;;;;;;;13.18;4.80;;;;;;;;;;5020565;28;20042;-59
2023/05/28 01:23:51;;;;;;;10.32;4.25;;;;;;;;;;5019440;28;20025;-59
2023/05/28 01:26:17;;;;;;;13.82;4.88;;;;;;;;;;5019524;28;20036;-59
2023/05/28 01:28:46;;;;;;;15.02;5.00;;;;;;;;;;5019982;28;20048;-58
2023/05/28 01:31:13;;;;;;;14.48;5.20;;;;;;;;;;5020098;28;20573;-59
2023/05/28 01:33:43;;;;;;;12.32;4.78;;;;;;;;;;5019371;28;20160;-59
2023/05/28 01:36:11;;;;;;;14.73;5.28;;;;;;;;;;5020222;28;20407;-58
2023/05/28 01:38:38;;;;;;;13.60;4.80;;;;;;;;;;5020338;28;20496;-59
2023/05/28 01:41:05;;;;;;;18.67;5.72;;;;;;;;;;5019887;28;20132;-59
2023/05/28 01:43:31;;;;;;;11.00;4.68;;;;;;;;;;5020427;28;20954;-58
2023/05/28 01:45:58;;;;;;;11.50;4.93;;;;;;;;;;5023182;28;20036;-58
2023/05/28 01:48:24;;;;;;;12.63;4.93;;;;;;;;;;5021416;28;20045;-59
2023/05/28 01:50:52;;;;;;;21.85;6.47;;;;;;;;;;5021756;28;20033;-58
2023/05/28 01:53:18;;;;;;;16.13;5.53;;;;;;;;;;5022082;28;20032;-58
2023/05/28 01:55:44;;;;;;;11.85;5.35;;;;;;;;;;5021928;28;20025;-59
2023/05/28 01:58:10;;;;;;;13.32;5.40;;;;;;;;;;5022983;28;20045;-59
2023/05/28 02:00:42;;;;;;;14.38;5.38;;;;;;;;;;5022669;28;20028;-58
2023/05/28 02:03:11;;;;;;;11.15;4.78;;;;;;;;;;5023706;28;20037;-59
2023/05/28 02:05:37;;;;;;;15.70;6.50;;;;;;;;;;5022572;28;20040;-58
2023/05/28 02:08:03;;;;;;;12.20;4.85;;;;;;;;;;5023243;28;21787;-59
2023/05/28 02:10:29;;;;;;;14.75;5.45;;;;;;;;;;5023180;28;20044;-58
2023/05/28 02:12:55;;;;;;;13.05;5.70;;;;;;;;;;5022015;28;20033;-59
2023/05/28 02:15:22;;;;;;;16.52;4.97;;;;;;;;;;5023168;28;20033;-59
2023/05/28 02:17:49;;;;;;;13.40;5.45;;;;;;;;;;5022228;28;20136;-59
2023/05/28 02:20:16;;;;;;;13.32;5.90;;;;;;;;;;5022578;28;20039;-59
2023/05/28 02:22:42;;;;;;;13.77;6.25;;;;;;;;;;5023410;28;20033;-58
2023/05/28 02:25:08;;;;;;;14.25;5.57;;;;;;;;;;5022152;28;21062;-59
2023/05/28 02:27:35;;;;;;;11.90;4.93;;;;;;;;;;5022926;28;20042;-58
2023/05/28 02:30:01;;;;;;;13.48;5.93;;;;;;;;;;5023438;28;20035;-58
2023/05/28 02:32:27;;;;;;;14.35;5.60;;;;;;;;;;5023144;28;20705;-58
2023/05/28 02:34:54;;;;;;;12.75;5.38;;;;;;;;;;5022240;28;20037;-59
2023/05/28 02:37:23;;;;;;;11.93;5.03;;;;;;;;;;5023117;28;20122;-59
2023/05/28 02:39:50;;;;;;;15.52;6.10;;;;;;;;;;5022746;28;20040;-58
2023/05/28 02:42:17;;;;;;;15.02;5.68;;;;;;;;;;5022560;28;20123;-59
2023/05/28 02:44:43;;;;;;;17.42;5.75;;;;;;;;;;5022472;28;20472;-59
2023/05/28 02:47:09;;;;;;;16.20;5.43;;;;;;;;;;5022410;28;20045;-59
2023/05/28 02:49:35;;;;;;;14.68;5.85;;;;;;;;;;5023046;28;20029;-58
2023/05/28 02:52:01;;;;;;;16.50;5.43;;;;;;;;;;5022557;28;20040;-58
2023/05/28 02:54:27;;;;;;;13.60;5.80;;;;;;;;;;5021547;28;21814;-58
2023/05/28 02:56:53;;;;;;;13.80;5.63;;;;;;;;;;5017563;28;20867;-58
2023/05/28 02:59:19;;;;;;;13.73;5.72;;;;;;;;;;5021965;28;20140;-58
2023/05/28 03:01:45;;;;;;;12.15;5.63;;;;;;;;;;5022139;28;20132;-59
2023/05/28 03:04:11;;;;;;;12.75;5.55;;;;;;;;;;5022798;28;20148;-59
2023/05/28 03:06:37;;;;;;;14.43;6.15;;;;;;;;;;5022232;28;20147;-58
2023/05/28 03:09:04;;;;;;;15.68;6.95;;;;;;;;;;5022722;28;20090;-58
2023/05/28 03:11:30;;;;;;;12.70;5.63;;;;;;;;;;5021552;28;20029;-58
2023/05/28 03:13:56;;;;;;;12.23;5.47;;;;;;;;;;5023143;28;20064;-58
2023/05/28 03:16:24;;;;;;;15.85;5.90;;;;;;;;;;5021717;28;20033;-58
2023/05/28 03:18:50;;;;;;;14.20;5.82;;;;;;;;;;5021905;28;20056;-58
2023/05/28 03:21:16;;;;;;;13.10;5.45;;;;;;;;;;5022377;28;20025;-59
2023/05/28 03:23:42;;;;;;;12.50;5.97;;;;;;;;;;5022431;28;20065;-58
2023/05/28 03:26:08;;;;;;;16.05;6.45;;;;;;;;;;5021933;28;20126;-59
2023/05/28 03:28:34;;;;;;;13.48;6.13;;;;;;;;;;5020952;28;20052;-58
2023/05/28 03:31:01;;;;;;;14.75;7.30;;;;;;;;;;5021845;28;20540;-58
2023/05/28 03:33:27;;;;;;;13.98;6.00;;;;;;;;;;5021346;28;20104;-58
2023/05/28 03:35:54;;;;;;;14.05;6.10;;;;;;;;;;5021675;28;20053;-58
2023/05/28 03:38:20;;;;;;;11.93;5.75;;;;;;;;;;5023286;28;20116;-58
2023/05/28 03:40:46;;;;;;;15.20;5.88;;;;;;;;;;5021257;28;20120;-58
2023/05/28 03:43:12;;;;;;;14.40;6.07;;;;;;;;;;5021723;28;20033;-58
2023/05/28 03:45:38;;;;;;;13.93;5.80;;;;;;;;;;5021739;28;20025;-58
2023/05/28 03:48:06;;;;;;;14.60;5.75;;;;;;;;;;5021688;28;20069;-58
2023/05/28 03:50:32;;;;;;;13.63;5.60;;;;;;;;;;5020728;28;20038;-58
2023/05/28 03:52:58;;;;;;;13.98;5.10;;;;;;;;;;5019948;28;20110;-59
2023/05/28 03:55:24;;;;;;;13.15;5.85;;;;;;;;;;5020187;28;20041;-59
2023/05/28 03:57:50;;;;;;;12.00;5.53;;;;;;;;;;5020751;28;20904;-58
2023/05/28 04:00:16;;;;;;;18.08;5.68;;;;;;;;;;5019020;28;20716;-58
2023/05/28 04:02:42;;;;;;;10.77;5.05;;;;;;;;;;5020085;28;20820;-58
2023/05/28 04:05:08;;;;;;;13.98;5.32;;;;;;;;;;5019875;28;21010;-59
2023/05/28 04:07:34;;;;;;;14.85;5.78;;;;;;;;;;5021100;28;20025;-58
2023/05/28 04:10:01;;;;;;;13.15;5.18;;;;;;;;;;5020748;28;20026;-58
2023/05/28 04:12:27;;;;;;;14.82;5.72;;;;;;;;;;5020289;28;20037;-58
2023/05/28 04:14:53;;;;;;;13.63;5.93;;;;;;;;;;5020485;28;20045;-58
2023/05/28 04:17:20;;;;;;;12.30;5.45;;;;;;;;;;5020724;28;20091;-59
2023/05/28 04:19:46;;;;;;;12.77;5.70;;;;;;;;;;5020872;28;20115;-58
2023/05/28 04:22:12;;;;;;;15.13;6.10;;;;;;;;;;5018747;28;20151;-58
2023/05/28 04:24:39;;;;;;;14.18;5.93;;;;;;;;;;5020230;28;20029;-58
2023/05/28 04:27:06;;;;;;;14.40;5.68;;;;;;;;;;5019466;28;20052;-58
2023/05/28 04:29:33;;;;;;;17.10;6.40;;;;;;;;;;5020268;28;20144;-58
2023/05/28 04:31:59;;;;;;;15.57;6.60;;;;;;;;;;5020421;28;20024;-58
2023/05/28 04:34:27;;;;;;;14.65;5.70;;;;;;;;;;5020429;28;20103;-58
2023/05/28 04:36:53;;;;;;;14.82;5.80;;;;;;;;;;5020640;28;20104;-58
2023/05/28 04:39:21;;;;;;;15.02;6.10;;;;;;;;;;5021166;28;20037;-58
2023/05/28 04:41:48;;;;;;;12.60;5.47;;;;;;;;;;5020679;28;20037;-58
2023/05/28 04:44:15;;;;;;;15.20;5.70;;;;;;;;;;5020011;28;20036;-58
2023/05/28 04:46:43;;;;;;;15.02;6.07;;;;;;;;;;5020708;28;20178;-58
2023/05/28 04:49:10;;;;;;;15.23;5.40;;;;;;;;;;5020589;28;20080;-58
2023/05/28 04:51:36;;;;;;;12.55;5.05;;;;;;;;;;5020723;28;20040;-58
2023/05/28 04:54:02;;;;;;;11.68;5.68;;;;;;;;;;5019740;28;20041;-59
2023/05/28 04:56:28;;;;;;;15.68;6.57;;;;;;;;;;5020833;28;20044;-58
2023/05/28 04:58:55;;;;;;;12.65;5.50;;;;;;;;;;5021101;28;20048;-58
2023/05/28 05:01:22;;;;;;;16.35;5.57;;;;;;;;;;5020429;28;20033;-58
2023/05/28 05:03:48;;;;;;;15.10;5.68;;;;;;;;;;5020586;28;20029;-58
2023/05/28 05:06:14;;;;;;;15.82;5.82;;;;;;;;;;5020863;28;21053;-58
2023/05/28 05:08:40;;;;;;;15.02;6.70;;;;;;;;;;5020395;28;20814;-58
2023/05/28 05:11:07;;;;;;;14.70;4.97;;;;;;;;;;5019139;28;20029;-58
2023/05/28 05:13:33;;;;;;;15.40;6.07;;;;;;;;;;5020360;28;20369;-58
2023/05/28 05:15:59;;;;;;;15.77;5.47;;;;;;;;;;5018924;28;20037;-58
2023/05/28 05:18:25;;;;;;;14.50;5.78;;;;;;;;;;5020431;28;20056;-58
2023/05/28 05:20:51;;;;;;;15.30;4.72;;;;;;;;;;5019410;28;20088;-58
2023/05/28 05:23:17;;;;;;;14.50;5.93;;;;;;;;;;5019588;28;20648;-59
2023/05/28 05:25:43;;;;;;;13.65;5.05;;;;;;;;;;5020503;28;20446;-58
2023/05/28 05:28:09;;;;;;;15.32;7.00;;;;;;;;;;5020424;28;20029;-58
2023/05/28 05:30:36;;;;;;;15.60;5.35;;;;;;;;;;5019722;28;20048;-59
2023/05/28 05:33:02;;;;;;;14.70;6.07;;;;;;;;;;5020264;28;20038;-58
2023/05/28 05:35:28;;;;;;;12.68;5.20;;;;;;;;;;5019448;28;20111;-59
2023/05/28 05:37:54;;;;;;;15.38;5.35;;;;;;;;;;5019604;28;20033;-59
2023/05/28 05:40:20;;;;;;;13.30;4.82;;;;;;;;;;5020514;28;20029;-59
2023/05/28 05:42:46;;;;;;;13.40;5.55;;;;;;;;;;5020118;28;20041;-59
2023/05/28 05:45:12;;;;;;;11.68;5.00;;;;;;;;;;5020134;28;20043;-59
2023/05/28 05:47:38;;;;;;;12.25;4.88;;;;;;;;;;5018803;28;20428;-59
2023/05/28 05:50:05;;;;;;;11.93;4.53;;;;;;;;;;5020785;28;20041;-59
2023/05/28 05:52:31;;;;;;;11.73;4.43;;;;;;;;;;5019721;28;20442;-59
2023/05/28 05:54:57;;;;;;;14.55;5.32;;;;;;;;;;5020166;28;20033;-59
2023/05/28 05:57:26;;;;;;;14.25;5.30;;;;;;;;;;5020483;28;20052;-58
2023/05/28 05:59:52;;;;;;;10.95;4.85;;;;;;;;;;5019105;28;21455;-59
2023/05/28 06:02:18;;;;;;;12.85;5.55;;;;;;;;;;5016045;28;20120;-59
2023/05/28 06:04:44;;;;;;;14.52;5.03;;;;;;;;;;5017827;28;20110;-59
2023/05/28 06:07:10;;;;;;;12.00;4.65;;;;;;;;;;5018806;28;20608;-58
2023/05/28 06:09:37;;;;;;;16.90;5.25;;;;;;;;;;5016982;28;20505;-59
2023/05/28 06:12:03;;;;;;;16.85;5.45;;;;;;;;;;5018504;28;20029;-59
2023/05/28 06:14:29;;;;;;;14.43;5.05;;;;;;;;;;5019881;28;21040;-59
2023/05/28 06:16:55;;;;;;;17.13;5.18;;;;;;;;;;5019322;28;20038;-59
2023/05/28 06:19:21;;;;;;;16.35;5.20;;;;;;;;;;5019800;28;20124;-59
2023/05/28 06:21:47;;;;;;;13.75;5.60;;;;;;;;;;5019770;28;20041;-59
2023/05/28 06:24:13;;;;;;;17.13;6.13;;;;;;;;;;5020134;28;20749;-59
2023/05/28 06:26:39;;;;;;;14.73;5.72;;;;;;;;;;5020067;28;20127;-59
2023/05/28 06:29:07;;;;;;;14.00;4.93;;;;;;;;;;5019720;28;20780;-59
2023/05/28 06:31:33;;;;;;;13.57;5.28;;;;;;;;;;5020981;28;20068;-59
2023/05/28 06:34:00;;;;;;;11.90;4.75;;;;;;;;;;5023506;28;20473;-59
2023/05/28 06:36:26;;;;;;;18.65;5.18;;;;;;;;;;5022909;28;20045;-59
2023/05/28 06:38:52;;;;;;;12.02;3.67;;;;;;;;;;5022932;28;20037;-59
2023/05/28 06:41:18;;;;;;;14.88;4.25;;;;;;;;;;5023302;28;20048;-58
2023/05/28 06:43:44;;;;;;;11.82;3.88;;;;;;;;;;5023038;28;20044;-59
2023/05/28 06:46:10;;;;;;;12.48;4.82;;;;;;;;;;5022927;28;20025;-59
2023/05/28 06:48:36;;;;;;;12.18;4.57;;;;;;;;;;5022998;28;20149;-59
2023/05/28 06:51:02;;;;;;;9.63;4.30;;;;;;;;;;5022131;28;20041;-59
2023/05/28 06:53:28;;;;;;;14.88;4.47;;;;;;;;;;5022120;28;20033;-59
2023/05/28 06:55:55;;;;;;;9.73;3.80;;;;;;;;;;5022686;28;20032;-58
2023/05/28 06:58:21;;;;;;;11.10;4.43;;;;;;;;;;5022854;28;20033;-59
2023/05/28 07:00:47;;;;;;;8.70;3.63;;;;;;;;;;5022606;28;21025;-59
2023/05/28 07:03:13;;;;;;;12.55;4.55;;;;;;;;;;5022370;28;20036;-59
2023/05/28 07:05:39;;;;;;;11.77;4.07;;;;;;;;;;5022585;28;20048;-59
2023/05/28 07:08:06;;;;;;;19.48;4.43;;;;;;;;;;5022569;28;20030;-59
2023/05/28 07:10:32;;;;;;;15.15;5.20;;;;;;;;;;5022196;28;21710;-58
2023/05/28 07:12:58;;;;;;;9.80;3.65;;;;;;;;;;5021864;28;20038;-58
2023/05/28 07:15:24;;;;;;;13.75;3.45;;;;;;;;;;5022679;28;20037;-59
2023/05/28 07:17:50;;;;;;;8.20;3.50;;;;;;;;;;5021796;28;20036;-58
2023/05/28 07:20:17;;;;;;;13.25;3.90;;;;;;;;;;5023837;28;20044;-58
2023/05/28 07:22:43;;;;;;;10.38;3.95;;;;;;;;;;5022525;28;20757;-59
2023/05/28 07:25:09;;;;;;;10.93;4.22;;;;;;;;;;5021686;28;20123;-58
2023/05/28 07:27:35;;;;;;;11.20;4.07;;;;;;;;;;5022987;28;20025;-58
2023/05/28 07:30:01;;;;;;;10.52;3.72;;;;;;;;;;5021647;28;20025;-58
2023/05/28 07:32:27;;;;;;;8.27;3.40;;;;;;;;;;5021745;28;20021;-58
2023/05/28 07:34:53;;;;;;;10.30;4.40;;;;;;;;;;5021821;28;20041;-58
2023/05/28 07:37:19;;;;;;;8.35;3.17;;;;;;;;;;5021838;28;20047;-58
2023/05/28 07:39:45;;;;;;;8.82;3.50;;;;;;;;;;5022276;28;20163;-59
2023/05/28 07:42:11;;;;;;;8.25;3.40;;;;;;;;;;5020398;28;20629;-58
2023/05/28 07:44:37;;;;;;;7.53;2.72;;;;;;;;;;5021521;28;20041;-59
2023/05/28 07:47:04;;;;;;;7.72;3.30;;;;;;;;;;5021275;28;20104;-58
2023/05/28 07:49:30;;;;;;;10.68;3.40;;;;;;;;;;5021970;28;20037;-58
2023/05/28 07:51:56;;;;;;;7.97;3.03;;;;;;;;;;5021942;28;20033;-64
2023/05/28 07:54:22;;;;;;;10.27;3.28;;;;;;;;;;5022108;28;20043;-65
2023/05/28 07:56:48;;;;;;;9.40;3.13;;;;;;;;;;5021569;28;20037;-64
2023/05/28 07:59:15;;;;;;;8.55;3.08;;;;;;;;;;5021874;28;20047;-63
2023/05/28 08:01:41;;;;;;;8.02;3.38;;;;;;;;;;5020550;28;20076;-63
2023/05/28 08:04:07;;;;;;;7.85;2.75;;;;;;;;;;5019697;28;20037;-64
2023/05/28 08:06:33;;;;;;;6.78;3.00;;;;;;;;;;5021469;28;20029;-64
2023/05/28 08:09:00;;;;;;;7.93;3.17;;;;;;;;;;5019689;28;20113;-64
2023/05/28 08:11:26;;;;;;;7.28;2.88;;;;;;;;;;5018750;28;20037;-65
2023/05/28 08:13:52;;;;;;;8.20;3.30;;;;;;;;;;5020662;28;20037;-63
2023/05/28 08:16:18;;;;;;;9.82;4.03;;;;;;;;;;5019977;28;21048;-64
2023/05/28 08:18:44;;;;;;;7.82;3.42;;;;;;;;;;5019245;28;20064;-63
2023/05/28 08:21:10;;;;;;;7.35;3.05;;;;;;;;;;5020978;28;20033;-64
2023/05/28 08:23:36;;;;;;;9.70;3.58;;;;;;;;;;5021596;28;20037;-63
2023/05/28 08:26:03;;;;;;;11.20;3.80;;;;;;;;;;5020592;28;20029;-64
2023/05/28 08:28:29;;;;;;;12.48;4.32;;;;;;;;;;5021677;28;20087;-63
2023/05/28 08:30:55;;;;;;;10.15;4.32;;;;;;;;;;5020663;28;20021;-63
2023/05/28 08:33:21;;;;;;;9.75;4.10;;;;;;;;;;5020763;28;21953;-63
2023/05/28 08:35:48;;;;;;;10.80;4.82;;;;;;;;;;5021159;28;20032;-63
2023/05/28 08:38:14;;;;;;;9.93;4.28;;;;;;;;;;5020236;28;20081;-63
2023/05/28 08:40:41;;;;;;;10.57;4.43;;;;;;;;;;5020540;28;20036;-63
2023/05/28 08:43:08;;;;;;;11.43;3.88;;;;;;;;;;5020086;28;20919;-63
2023/05/28 08:45:37;;;;;;;8.20;4.47;;;;;;;;;;5019873;28;20029;-64
2023/05/28 08:48:06;;;;;;;10.55;4.25;;;;;;;;;;5020702;28;21005;-63
2023/05/28 08:50:32;;;;;;;9.27;4.97;;;;;;;;;;5020569;28;20041;-63
2023/05/28 08:53:00;;;;;;;8.40;4.53;;;;;;;;;;5020396;28;20025;-64
2023/05/28 08:55:26;;;;;;;9.38;4.28;;;;;;;;;;5019347;28;20741;-63
2023/05/28 08:57:53;;;;;;;8.30;4.20;;;;;;;;;;5020932;28;20044;-63
2023/05/28 09:00:19;;;;;;;10.35;4.35;;;;;;;;;;5021244;28;20083;-63
2023/05/28 09:02:45;;;;;;;9.52;4.47;;;;;;;;;;5021425;28;20155;-63
2023/05/28 09:05:11;;;;;;;10.95;4.53;;;;;;;;;;5021393;28;20055;-63
2023/05/28 09:07:37;;;;;;;11.82;4.85;;;;;;;;;;5020697;28;20060;-63
2023/05/28 09:10:03;;;;;;;8.98;4.45;;;;;;;;;;5020015;28;20033;-63
2023/05/28 09:12:30;;;;;;;10.38;4.43;;;;;;;;;;5020112;28;20035;-63
2023/05/28 09:14:56;;;;;;;8.70;4.60;;;;;;;;;;5019939;28;20052;-63
2023/05/28 09:17:32;;;;;;;11.10;4.93;;;;;;;;;;5019292;28;20535;-64
2023/05/28 09:19:59;;;;;;;12.27;4.45;;;;;;;;;;5020175;28;20045;-64
2023/05/28 09:22:26;;;;;;;13.05;4.65;;;;;;;;;;5019966;28;20032;-64
2023/05/28 09:24:52;;;;;;;9.43;4.65;;;;;;;;;;5018494;28;20025;-64
2023/05/28 09:27:19;;;;;;;9.98;5.00;;;;;;;;;;5019607;28;20060;-63
2023/05/28 09:29:46;;;;;;;9.85;5.28;;;;;;;;;;5019920;28;20037;-63
2023/05/28 09:32:17;;;;;;;10.88;5.47;;;;;;;;;;5019371;28;20033;-63
2023/05/28 09:34:43;;;;;;;13.60;6.10;;;;;;;;;;5020362;28;21172;-64
2023/05/28 09:37:09;;;;;;;10.95;5.90;;;;;;;;;;5019960;28;20036;-64
2023/05/28 09:39:36;;;;;;;12.27;5.63;;;;;;;;;;5019507;28;20064;-63
2023/05/28 09:42:03;;;;;;;9.80;4.78;;;;;;;;;;5018974;28;20079;-64
2023/05/28 09:44:32;;;;;;;9.48;5.68;;;;;;;;;;5020041;28;20149;-63
2023/05/28 09:46:58;;;;;;;10.73;5.85;;;;;;;;;;5020155;28;20040;-63
2023/05/28 09:49:24;;;;;;;12.73;6.43;;;;;;;;;;5019522;28;20107;-64
2023/05/28 09:51:54;;;;;;;12.95;6.55;;;;;;;;;;5020253;28;20033;-64
2023/05/28 09:54:20;;;;;;;10.40;5.70;;;;;;;;;;5020043;28;20033;-63
2023/05/28 09:56:48;;;;;;;11.50;5.95;;;;;;;;;;5020439;28;20029;-64
2023/05/28 09:59:15;;;;;;;13.10;6.07;;;;;;;;;;5018707;28;20118;-64
2023/05/28 10:01:47;;;;;;;9.80;5.40;;;;;;;;;;5019423;28;20044;-64
2023/05/28 10:04:15;;;;;;;11.88;6.45;;;;;;;;;;5019762;28;20196;-65
2023/05/28 10:06:43;;;;;;;10.25;5.50;;;;;;;;;;5021408;28;20108;-63
2023/05/28 10:09:09;;;;;;;12.32;7.15;;;;;;;;;;5023160;28;20461;-64
2023/05/28 10:11:40;;;;;;;10.52;5.60;;;;;;;;;;5022366;28;20385;-64
2023/05/28 10:14:07;;;;;;;8.82;5.13;;;;;;;;;;5022561;28;21440;-64
2023/05/28 10:16:33;;;;;;;9.88;5.40;;;;;;;;;;5022215;28;20075;-64
2023/05/28 10:19:00;;;;;;;10.55;5.22;;;;;;;;;;5021710;28;20930;-64
2023/05/28 10:21:26;;;;;;;8.38;4.60;;;;;;;;;;5022223;28;20065;-64
2023/05/28 10:23:52;;;;;;;11.18;5.13;;;;;;;;;;5022396;28;20037;-63
2023/05/28 10:26:19;;;;;;;10.65;5.38;;;;;;;;;;5021819;28;20061;-63
2023/05/28 10:28:45;;;;;;;7.63;4.00;;;;;;;;;;5021186;28;20083;-64
2023/05/28 10:31:11;;;;;;;11.73;4.90;;;;;;;;;;5021447;28;20029;-64
2023/05/28 10:33:38;;;;;;;7.10;3.70;;;;;;;;;;5021657;28;20230;-63
2023/05/28 10:36:04;;;;;;;6.63;3.40;;;;;;;;;;5022572;28;20026;-64
2023/05/28 10:38:30;;;;;;;8.82;3.25;;;;;;;;;;5022298;28;20135;-63
2023/05/28 10:41:02;;;;;;;6.68;2.83;;;;;;;;;;5022245;28;20040;-63
2023/05/28 10:43:38;;;;;;;8.05;2.90;;;;;;;;;;5021743;28;20037;-63
2023/05/28 10:46:04;;;;;;;6.80;2.70;;;;;;;;;;5022874;28;20044;-63
2023/05/28 10:48:33;;;;;;;8.80;2.97;;;;;;;;;;5022721;28;20037;-64
2023/05/28 10:51:00;;;;;;;9.55;2.90;;;;;;;;;;5023049;28;20029;-63
2023/05/28 10:53:27;;;;;;;9.93;2.70;;;;;;;;;;5023508;28;20029;-64
2023/05/28 10:55:56;;;;;;;7.20;2.85;;;;;;;;;;5023159;28;20048;-64
2023/05/28 10:58:38;;;;;;;6.38;2.50;;;;;;;;;;5022361;28;20029;-64
2023/05/28 11:01:24;;;;;;;7.88;3.35;;;;;;;;;;5023200;28;20079;-64
2023/05/28 11:03:54;;;;;;;8.40;3.95;;;;;;;;;;5022296;28;20028;-64
2023/05/28 11:06:20;;;;;;;8.23;3.03;;;;;;;;;;5021940;28;20025;-64
2023/05/28 11:08:47;;;;;;;10.90;3.22;;;;;;;;;;5022183;28;20038;-64
2023/05/28 11:11:15;;;;;;;7.18;3.00;;;;;;;;;;5022627;28;20032;-63
2023/05/28 11:13:44;;;;;;;10.40;3.67;;;;;;;;;;5022201;28;20025;-64
2023/05/28 11:16:11;;;;;;;8.93;3.05;;;;;;;;;;5021214;28;20033;-64
2023/05/28 11:18:38;;;;;;;10.60;2.95;;;;;;;;;;5020950;28;20057;-63
2023/05/28 11:21:11;;;;;;;9.20;2.85;;;;;;;;;;5022177;28;20925;-64
2023/05/28 11:23:37;;;;;;;8.15;3.08;;;;;;;;;;5023122;28;20029;-64
2023/05/28 11:26:04;;;;;;;6.70;2.60;;;;;;;;;;5022181;28;20037;-64
2023/05/28 11:28:31;;;;;;;7.70;2.97;;;;;;;;;;5021684;28;20071;-63
2023/05/28 11:31:00;;;;;;;8.65;3.13;;;;;;;;;;5021970;28;20029;-63
2023/05/28 11:33:29;;;;;;;9.52;3.30;;;;;;;;;;5021601;28;20488;-63
2023/05/28 11:36:00;;;;;;;7.38;3.15;;;;;;;;;;5022097;28;20041;-64
2023/05/28 11:38:26;;;;;;;6.63;3.10;;;;;;;;;;5021434;28;20033;-63
2023/05/28 11:40:58;;;;;;;9.88;3.67;;;;;;;;;;5022152;28;21382;-63
2023/05/28 11:43:27;;;;;;;9.43;3.40;;;;;;;;;;5022522;28;20029;-64
2023/05/28 11:45:58;;;;;;;7.32;3.78;;;;;;;;;;5022778;28;20164;-64
2023/05/28 11:48:26;;;;;;;9.85;4.03;;;;;;;;;;5021064;28;21779;-64
2023/05/28 11:51:01;;;;;;;9.95;4.20;;;;;;;;;;5020162;28;20461;-64
2023/05/28 11:53:40;;;;;;;9.55;4.22;;;;;;;;;;5021605;28;20116;-63
2023/05/28 11:56:07;;;;;;;9.98;3.42;;;;;;;;;;5021646;28;20116;-64
2023/05/28 11:58:37;;;;;;;8.73;3.75;;;;;;;;;;5021578;28;20029;-64
2023/05/28 12:01:04;;;;;;;12.30;4.03;;;;;;;;;;5021064;28;20039;-64
2023/05/28 12:03:30;;;;;;;9.35;3.60;;;;;;;;;;5021214;28;20079;-64
2023/05/28 12:05:56;;;;;;;12.02;4.60;;;;;;;;;;5020457;28;20131;-64
2023/05/28 12:08:22;;;;;;;11.52;3.55;;;;;;;;;;5021575;28;20036;-63
2023/05/28 12:10:48;;;;;;;12.85;3.78;;;;;;;;;;5020449;28;20088;-64
2023/05/28 12:13:14;;;;;;;10.20;3.75;;;;;;;;;;5021054;28;20135;-64
2023/05/28 12:15:40;;;;;;;9.85;3.97;;;;;;;;;;5020843;28;20032;-64
2023/05/28 12:18:06;;;;;;;12.95;4.15;;;;;;;;;;5020363;28;20083;-63
2023/05/28 12:20:42;;;;;;;11.55;3.83;;;;;;;;;;5020047;28;20037;-64
2023/05/28 12:23:08;;;;;;;12.32;4.28;;;;;;;;;;5020044;28;20750;-64
2023/05/28 12:25:43;;;;;;;8.13;3.53;;;;;;;;;;5018360;28;20120;-64
2023/05/28 12:28:13;;;;;;;17.30;5.78;;;;;;;;;;5017967;28;20029;-62
2023/05/28 12:30:40;;;;;;;13.30;4.97;;;;;;;;;;5019434;28;20449;-64
2023/05/28 12:33:06;;;;;;;11.30;4.93;;;;;;;;;;5019220;28;20652;-63
2023/05/28 12:35:32;;;;;;;14.23;4.80;;;;;;;;;;5019288;28;21337;-63
2023/05/28 12:37:58;;;;;;;13.73;4.25;;;;;;;;;;5020375;28;20485;-63
2023/05/28 12:40:24;;;;;;;11.88;3.97;;;;;;;;;;5020366;28;20033;-63
2023/05/28 12:42:50;;;;;;;14.15;4.30;;;;;;;;;;5019954;28;20025;-63
2023/05/28 12:45:16;;;;;;;10.90;3.97;;;;;;;;;;5019684;28;20033;-64
2023/05/28 12:47:42;;;;;;;12.35;3.63;;;;;;;;;;5020125;28;20731;-63
2023/05/28 12:50:08;;;;;;;12.98;4.20;;;;;;;;;;5020292;28;20488;-64
2023/05/28 12:52:34;;;;;;;10.75;3.80;;;;;;;;;;5020530;28;20631;-63
2023/05/28 12:55:01;;;;;;;15.93;5.03;;;;;;;;;;5021430;28;21554;-63
2023/05/28 12:57:27;;;;;;;11.20;3.45;;;;;;;;;;5020596;28;20131;-63
2023/05/28 12:59:53;;;;;;;10.48;3.35;;;;;;;;;;5020684;28;20036;-63
2023/05/28 13:02:19;;;;;;;13.85;3.72;;;;;;;;;;5019854;28;20029;-63
2023/05/28 13:04:45;;;;;;;11.75;3.88;;;;;;;;;;5019570;28;20033;-63
2023/05/28 13:07:12;;;;;;;10.13;3.78;;;;;;;;;;5020581;28;21648;-64
2023/05/28 13:09:38;;;;;;;12.85;3.95;;;;;;;;;;5019383;28;20039;-64
2023/05/28 13:12:04;;;;;;;9.30;3.40;;;;;;;;;;5020564;28;20099;-64
2023/05/28 13:14:31;;;;;;;10.88;3.45;;;;;;;;;;5020195;28;20020;-64
2023/05/28 13:16:57;;;;;;;11.38;3.90;;;;;;;;;;5019866;28;20057;-63
2023/05/28 13:19:24;;;;;;;10.90;3.45;;;;;;;;;;5019429;28;20052;-63
2023/05/28 13:21:50;;;;;;;9.55;3.72;;;;;;;;;;5018933;28;20060;-63
2023/05/28 13:24:16;;;;;;;12.68;3.25;;;;;;;;;;5019981;28;20025;-64
2023/05/28 13:26:42;;;;;;;13.15;4.05;;;;;;;;;;5019714;28;20029;-64
2023/05/28 13:29:09;;;;;;;11.68;3.90;;;;;;;;;;5020772;28;20040;-64
2023/05/28 13:31:35;;;;;;;13.68;3.47;;;;;;;;;;5020632;28;21903;-64
2023/05/28 13:34:02;;;;;;;10.93;3.72;;;;;;;;;;5019749;28;20561;-64
2023/05/28 13:36:28;;;;;;;15.43;4.15;;;;;;;;;;5019367;28;20112;-63
2023/05/28 13:38:55;;;;;;;11.70;3.63;;;;;;;;;;5019489;28;20124;-63
2023/05/28 13:41:22;;;;;;;11.52;3.33;;;;;;;;;;5023761;28;20865;-64
2023/05/28 13:43:49;;;;;;;11.20;3.92;;;;;;;;;;5024092;28;21711;-64
2023/05/28 13:46:16;;;;;;;11.52;3.35;;;;;;;;;;5024114;28;20043;-63
2023/05/28 13:48:42;;;;;;;11.77;3.08;;;;;;;;;;5023714;28;20116;-64
2023/05/28 13:51:08;;;;;;;12.95;3.70;;;;;;;;;;5024259;28;20037;-64
2023/05/28 13:53:35;;;;;;;15.10;3.33;;;;;;;;;;5024093;28;20063;-65
2023/05/28 13:56:01;;;;;;;10.20;2.85;;;;;;;;;;5023772;28;20040;-64
2023/05/28 13:58:27;;;;;;;11.40;3.65;;;;;;;;;;5023525;28;20064;-64
2023/05/28 14:00:53;;;;;;;11.40;3.33;;;;;;;;;;5023229;28;20037;-64
2023/05/28 14:03:19;;;;;;;13.80;3.50;;;;;;;;;;5023725;28;20044;-64
2023/05/28 14:05:45;;;;;;;15.93;3.78;;;;;;;;;;5023480;28;20025;-64
2023/05/28 14:08:12;;;;;;;10.68;3.55;;;;;;;;;;5023945;28;20025;-64
2023/05/28 14:10:38;;;;;;;14.27;4.50;;;;;;;;;;5023549;28;20034;-64
2023/05/28 14:13:04;;;;;;;14.50;4.05;;;;;;;;;;5022293;28;20042;-64
2023/05/28 14:15:30;;;;;;;11.60;4.07;;;;;;;;;;5023618;28;20025;-64
2023/05/28 14:17:56;;;;;;;12.30;4.05;;;;;;;;;;5023614;28;21715;-64
2023/05/28 14:20:22;;;;;;;10.80;3.65;;;;;;;;;;5023033;28;21823;-64
2023/05/28 14:22:48;;;;;;;11.70;3.25;;;;;;;;;;5024284;28;20462;-64
2023/05/28 14:25:15;;;;;;;12.38;3.78;;;;;;;;;;5022897;28;20061;-64
2023/05/28 14:27:41;;;;;;;10.95;4.10;;;;;;;;;;5023844;28;21521;-64
2023/05/28 14:30:07;;;;;;;12.98;3.90;;;;;;;;;;5021899;28;21961;-64